sensor_id;sensor_type;location;lat;lon;timestamp;P1;durP1;ratioP1;P2;durP2;ratioP2
73015;SDS011;61893;50.074;14.440;2024-03-17T00:01:14;6.60;;;2.92;;
73015;SDS011;61893;50.074;14.440;2024-03-17T00:04:03;6.63;;;3.20;;
73015;SDS011;61893;50.074;14.440;2024-03-17T00:06:29;7.60;;;2.83;;
73015;SDS011;61893;50.074;14.440;2024-03-17T00:09:01;8.30;;;3.17;;
73015;SDS011;61893;50.074;14.440;2024-03-17T00:11:38;5.40;;;3.10;;
73015;SDS011;61893;50.074;14.440;2024-03-17T00:14:06;6.87;;;3.10;;
73015;SDS011;61893;50.074;14.440;2024-03-17T00:16:47;5.53;;;2.90;;
73015;SDS011;61893;50.074;14.440;2024-03-17T00:19:14;4.83;;;3.40;;
73015;SDS011;61893;50.074;14.440;2024-03-17T00:21:42;7.67;;;3.90;;
73015;SDS011;61893;50.074;14.440;2024-03-17T00:24:08;8.73;;;3.23;;
73015;SDS011;61893;50.074;14.440;2024-03-17T00:26:35;5.70;;;3.47;;
73015;SDS011;61893;50.074;14.440;2024-03-17T00:29:01;6.73;;;3.90;;
73015;SDS011;61893;50.074;14.440;2024-03-17T00:31:28;7.60;;;3.67;;
73015;SDS011;61893;50.074;14.440;2024-03-17T00:33:54;9.40;;;3.90;;
73015;SDS011;61893;50.074;14.440;2024-03-17T00:36:20;7.23;;;3.80;;
73015;SDS011;61893;50.074;14.440;2024-03-17T00:38:46;9.30;;;3.30;;
73015;SDS011;61893;50.074;14.440;2024-03-17T00:41:11;9.17;;;3.83;;
73015;SDS011;61893;50.074;14.440;2024-03-17T00:43:37;7.17;;;3.50;;
73015;SDS011;61893;50.074;14.440;2024-03-17T00:46:03;8.60;;;3.87;;
73015;SDS011;61893;50.074;14.440;2024-03-17T00:48:29;9.23;;;3.50;;
73015;SDS011;61893;50.074;14.440;2024-03-17T00:50:57;7.40;;;3.70;;
73015;SDS011;61893;50.074;14.440;2024-03-17T00:53:27;11.80;;;3.80;;
73015;SDS011;61893;50.074;14.440;2024-03-17T00:55:57;8.57;;;3.90;;
73015;SDS011;61893;50.074;14.440;2024-03-17T00:58:26;10.00;;;4.20;;
73015;SDS011;61893;50.074;14.440;2024-03-17T01:00:52;11.47;;;4.63;;
73015;SDS011;61893;50.074;14.440;2024-03-17T01:03:18;8.17;;;3.93;;
73015;SDS011;61893;50.074;14.440;2024-03-17T01:05:47;10.03;;;4.10;;
73015;SDS011;61893;50.074;14.440;2024-03-17T01:08:16;8.27;;;3.50;;
73015;SDS011;61893;50.074;14.440;2024-03-17T01:10:42;13.13;;;4.83;;
73015;SDS011;61893;50.074;14.440;2024-03-17T01:13:09;8.40;;;4.17;;
73015;SDS011;61893;50.074;14.440;2024-03-17T01:15:36;7.93;;;4.40;;
73015;SDS011;61893;50.074;14.440;2024-03-17T01:18:03;10.30;;;3.63;;
73015;SDS011;61893;50.074;14.440;2024-03-17T01:20:30;7.07;;;4.53;;
73015;SDS011;61893;50.074;14.440;2024-03-17T01:22:56;8.13;;;4.10;;
73015;SDS011;61893;50.074;14.440;2024-03-17T01:25:22;6.03;;;3.40;;
73015;SDS011;61893;50.074;14.440;2024-03-17T01:27:47;7.70;;;3.70;;
73015;SDS011;61893;50.074;14.440;2024-03-17T01:30:13;7.40;;;3.47;;
73015;SDS011;61893;50.074;14.440;2024-03-17T01:32:39;10.73;;;3.73;;
73015;SDS011;61893;50.074;14.440;2024-03-17T01:35:10;7.20;;;3.47;;
73015;SDS011;61893;50.074;14.440;2024-03-17T01:37:37;10.77;;;3.40;;
73015;SDS011;61893;50.074;14.440;2024-03-17T01:40:07;7.10;;;3.73;;
73015;SDS011;61893;50.074;14.440;2024-03-17T01:42:39;10.90;;;3.60;;
73015;SDS011;61893;50.074;14.440;2024-03-17T01:47:43;7.97;;;3.97;;
73015;SDS011;61893;50.074;14.440;2024-03-17T01:50:18;6.30;;;3.63;;
73015;SDS011;61893;50.074;14.440;2024-03-17T01:52:53;5.57;;;3.33;;
73015;SDS011;61893;50.074;14.440;2024-03-17T01:56:22;8.53;;;3.67;;
73015;SDS011;61893;50.074;14.440;2024-03-17T01:58:48;6.33;;;3.63;;
73015;SDS011;61893;50.074;14.440;2024-03-17T02:01:15;7.33;;;3.77;;
73015;SDS011;61893;50.074;14.440;2024-03-17T02:03:45;8.93;;;3.87;;
73015;SDS011;61893;50.074;14.440;2024-03-17T02:06:10;9.30;;;3.63;;
73015;SDS011;61893;50.074;14.440;2024-03-17T02:08:46;10.30;;;4.63;;
73015;SDS011;61893;50.074;14.440;2024-03-17T02:11:26;10.23;;;3.80;;
73015;SDS011;61893;50.074;14.440;2024-03-17T02:13:54;8.30;;;3.53;;
73015;SDS011;61893;50.074;14.440;2024-03-17T02:16:37;7.10;;;3.78;;
73015;SDS011;61893;50.074;14.440;2024-03-17T02:19:03;9.13;;;3.83;;
73015;SDS011;61893;50.074;14.440;2024-03-17T02:21:35;11.17;;;3.70;;
73015;SDS011;61893;50.074;14.440;2024-03-17T02:24:03;7.73;;;3.60;;
73015;SDS011;61893;50.074;14.440;2024-03-17T02:26:29;10.70;;;4.30;;
73015;SDS011;61893;50.074;14.440;2024-03-17T02:29:14;9.77;;;3.67;;
73015;SDS011;61893;50.074;14.440;2024-03-17T02:31:39;6.77;;;3.87;;
73015;SDS011;61893;50.074;14.440;2024-03-17T02:34:08;8.57;;;4.37;;
73015;SDS011;61893;50.074;14.440;2024-03-17T02:36:33;6.93;;;4.97;;
73015;SDS011;61893;50.074;14.440;2024-03-17T02:38:59;8.27;;;4.13;;
73015;SDS011;61893;50.074;14.440;2024-03-17T02:41:46;9.37;;;4.20;;
73015;SDS011;61893;50.074;14.440;2024-03-17T02:44:38;7.53;;;4.00;;
73015;SDS011;61893;50.074;14.440;2024-03-17T02:47:13;7.33;;;3.17;;
73015;SDS011;61893;50.074;14.440;2024-03-17T02:49:41;8.93;;;4.03;;
73015;SDS011;61893;50.074;14.440;2024-03-17T02:52:30;9.00;;;4.00;;
73015;SDS011;61893;50.074;14.440;2024-03-17T02:55:37;9.40;;;3.60;;
73015;SDS011;61893;50.074;14.440;2024-03-17T02:58:03;8.13;;;3.63;;
73015;SDS011;61893;50.074;14.440;2024-03-17T03:00:50;8.13;;;3.70;;
73015;SDS011;61893;50.074;14.440;2024-03-17T03:07:05;8.33;;;3.73;;
73015;SDS011;61893;50.074;14.440;2024-03-17T03:10:05;9.97;;;3.10;;
73015;SDS011;61893;50.074;14.440;2024-03-17T03:12:36;4.90;;;2.97;;
73015;SDS011;61893;50.074;14.440;2024-03-17T03:15:01;6.37;;;3.00;;
73015;SDS011;61893;50.074;14.440;2024-03-17T03:18:08;4.20;;;2.70;;
73015;SDS011;61893;50.074;14.440;2024-03-17T03:20:39;4.37;;;2.40;;
73015;SDS011;61893;50.074;14.440;2024-03-17T03:23:33;5.97;;;2.60;;
73015;SDS011;61893;50.074;14.440;2024-03-17T03:26:04;7.37;;;3.10;;
73015;SDS011;61893;50.074;14.440;2024-03-17T03:28:33;5.47;;;2.90;;
73015;SDS011;61893;50.074;14.440;2024-03-17T03:31:05;6.80;;;2.80;;
73015;SDS011;61893;50.074;14.440;2024-03-17T03:33:32;4.43;;;2.73;;
73015;SDS011;61893;50.074;14.440;2024-03-17T03:35:58;4.93;;;2.80;;
73015;SDS011;61893;50.074;14.440;2024-03-17T03:38:28;7.30;;;2.90;;
73015;SDS011;61893;50.074;14.440;2024-03-17T03:40:54;6.97;;;3.13;;
73015;SDS011;61893;50.074;14.440;2024-03-17T03:43:37;5.57;;;2.90;;
73015;SDS011;61893;50.074;14.440;2024-03-17T03:46:09;8.00;;;2.83;;
73015;SDS011;61893;50.074;14.440;2024-03-17T03:48:38;6.23;;;3.20;;
73015;SDS011;61893;50.074;14.440;2024-03-17T03:51:10;6.37;;;3.33;;
73015;SDS011;61893;50.074;14.440;2024-03-17T03:53:43;8.23;;;4.00;;
73015;SDS011;61893;50.074;14.440;2024-03-17T03:56:31;9.30;;;3.97;;
73015;SDS011;61893;50.074;14.440;2024-03-17T03:58:58;6.83;;;3.73;;
73015;SDS011;61893;50.074;14.440;2024-03-17T04:01:24;7.17;;;3.60;;
73015;SDS011;61893;50.074;14.440;2024-03-17T04:03:52;11.97;;;3.83;;
73015;SDS011;61893;50.074;14.440;2024-03-17T04:06:21;10.73;;;3.57;;
73015;SDS011;61893;50.074;14.440;2024-03-17T04:14:03;7.30;;;3.57;;
73015;SDS011;61893;50.074;14.440;2024-03-17T04:16:30;6.40;;;3.60;;
73015;SDS011;61893;50.074;14.440;2024-03-17T04:21:31;9.57;;;4.13;;
73015;SDS011;61893;50.074;14.440;2024-03-17T04:24:00;9.47;;;3.70;;
73015;SDS011;61893;50.074;14.440;2024-03-17T04:26:27;6.83;;;3.67;;
73015;SDS011;61893;50.074;14.440;2024-03-17T04:28:53;8.47;;;4.07;;
73015;SDS011;61893;50.074;14.440;2024-03-17T04:31:19;8.90;;;3.90;;
73015;SDS011;61893;50.074;14.440;2024-03-17T04:33:44;8.53;;;4.03;;
73015;SDS011;61893;50.074;14.440;2024-03-17T04:36:11;6.67;;;3.70;;
73015;SDS011;61893;50.074;14.440;2024-03-17T04:38:39;9.47;;;4.03;;
73015;SDS011;61893;50.074;14.440;2024-03-17T04:41:04;8.47;;;3.50;;
73015;SDS011;61893;50.074;14.440;2024-03-17T04:43:31;8.23;;;3.80;;
73015;SDS011;61893;50.074;14.440;2024-03-17T04:46:01;9.13;;;3.87;;
73015;SDS011;61893;50.074;14.440;2024-03-17T04:48:29;8.30;;;3.40;;
73015;SDS011;61893;50.074;14.440;2024-03-17T04:51:06;7.50;;;3.47;;
73015;SDS011;61893;50.074;14.440;2024-03-17T04:53:46;8.47;;;3.97;;
73015;SDS011;61893;50.074;14.440;2024-03-17T04:56:15;7.80;;;3.90;;
73015;SDS011;61893;50.074;14.440;2024-03-17T04:58:40;7.70;;;4.10;;
73015;SDS011;61893;50.074;14.440;2024-03-17T05:01:12;9.43;;;4.37;;
73015;SDS011;61893;50.074;14.440;2024-03-17T05:03:53;9.20;;;4.00;;
73015;SDS011;61893;50.074;14.440;2024-03-17T05:06:48;11.10;;;4.27;;
73015;SDS011;61893;50.074;14.440;2024-03-17T05:09:32;9.80;;;4.30;;
73015;SDS011;61893;50.074;14.440;2024-03-17T05:12:25;8.13;;;3.80;;
73015;SDS011;61893;50.074;14.440;2024-03-17T05:15:15;11.67;;;5.33;;
73015;SDS011;61893;50.074;14.440;2024-03-17T05:18:01;8.97;;;4.10;;
73015;SDS011;61893;50.074;14.440;2024-03-17T05:20:58;8.57;;;3.57;;
73015;SDS011;61893;50.074;14.440;2024-03-17T05:23:27;7.97;;;4.10;;
73015;SDS011;61893;50.074;14.440;2024-03-17T05:26:19;10.37;;;3.90;;
73015;SDS011;61893;50.074;14.440;2024-03-17T05:28:45;6.93;;;3.90;;
73015;SDS011;61893;50.074;14.440;2024-03-17T05:31:10;8.83;;;4.23;;
73015;SDS011;61893;50.074;14.440;2024-03-17T05:33:41;9.27;;;4.03;;
73015;SDS011;61893;50.074;14.440;2024-03-17T05:36:07;10.83;;;5.13;;
73015;SDS011;61893;50.074;14.440;2024-03-17T05:38:33;10.30;;;4.17;;
73015;SDS011;61893;50.074;14.440;2024-03-17T05:40:59;9.77;;;4.27;;
73015;SDS011;61893;50.074;14.440;2024-03-17T05:43:27;10.80;;;4.37;;
73015;SDS011;61893;50.074;14.440;2024-03-17T05:46:06;9.13;;;3.70;;
73015;SDS011;61893;50.074;14.440;2024-03-17T05:48:37;7.87;;;4.03;;
73015;SDS011;61893;50.074;14.440;2024-03-17T05:51:07;8.63;;;3.63;;
73015;SDS011;61893;50.074;14.440;2024-03-17T05:53:37;9.27;;;4.10;;
73015;SDS011;61893;50.074;14.440;2024-03-17T05:56:05;8.93;;;3.70;;
73015;SDS011;61893;50.074;14.440;2024-03-17T05:58:41;8.00;;;4.03;;
73015;SDS011;61893;50.074;14.440;2024-03-17T06:01:08;6.93;;;3.50;;
73015;SDS011;61893;50.074;14.440;2024-03-17T06:03:36;5.77;;;3.63;;
73015;SDS011;61893;50.074;14.440;2024-03-17T06:06:08;8.20;;;3.70;;
73015;SDS011;61893;50.074;14.440;2024-03-17T06:08:50;7.50;;;3.50;;
73015;SDS011;61893;50.074;14.440;2024-03-17T06:11:22;7.83;;;4.20;;
73015;SDS011;61893;50.074;14.440;2024-03-17T06:13:49;7.07;;;3.60;;
73015;SDS011;61893;50.074;14.440;2024-03-17T06:16:20;8.97;;;3.27;;
73015;SDS011;61893;50.074;14.440;2024-03-17T06:18:46;9.87;;;4.47;;
73015;SDS011;61893;50.074;14.440;2024-03-17T06:21:15;5.93;;;3.00;;
73015;SDS011;61893;50.074;14.440;2024-03-17T06:23:59;8.27;;;3.30;;
73015;SDS011;61893;50.074;14.440;2024-03-17T06:26:24;5.55;;;3.15;;
73015;SDS011;61893;50.074;14.440;2024-03-17T06:28:52;8.07;;;3.50;;
73015;SDS011;61893;50.074;14.440;2024-03-17T06:31:23;5.85;;;3.15;;
73015;SDS011;61893;50.074;14.440;2024-03-17T06:33:49;8.27;;;3.95;;
73015;SDS011;61893;50.074;14.440;2024-03-17T06:36:18;6.97;;;3.20;;
73015;SDS011;61893;50.074;14.440;2024-03-17T06:38:48;7.70;;;3.17;;
73015;SDS011;61893;50.074;14.440;2024-03-17T06:41:22;5.75;;;3.25;;
73015;SDS011;61893;50.074;14.440;2024-03-17T06:44:06;5.95;;;3.00;;
73015;SDS011;61893;50.074;14.440;2024-03-17T06:46:33;4.97;;;3.22;;
73015;SDS011;61893;50.074;14.440;2024-03-17T06:48:59;6.10;;;3.22;;
73015;SDS011;61893;50.074;14.440;2024-03-17T06:51:44;6.35;;;2.80;;
73015;SDS011;61893;50.074;14.440;2024-03-17T06:54:11;6.63;;;3.00;;
73015;SDS011;61893;50.074;14.440;2024-03-17T06:56:37;4.10;;;2.90;;
73015;SDS011;61893;50.074;14.440;2024-03-17T06:59:05;7.20;;;2.88;;
73015;SDS011;61893;50.074;14.440;2024-03-17T07:01:31;6.05;;;3.35;;
73015;SDS011;61893;50.074;14.440;2024-03-17T07:04:00;6.13;;;2.90;;
73015;SDS011;61893;50.074;14.440;2024-03-17T07:06:42;7.28;;;3.40;;
73015;SDS011;61893;50.074;14.440;2024-03-17T07:09:42;6.20;;;2.97;;
73015;SDS011;61893;50.074;14.440;2024-03-17T07:12:10;5.78;;;2.90;;
73015;SDS011;61893;50.074;14.440;2024-03-17T07:14:50;6.25;;;2.90;;
73015;SDS011;61893;50.074;14.440;2024-03-17T07:17:55;4.70;;;2.72;;
73015;SDS011;61893;50.074;14.440;2024-03-17T07:20:38;4.30;;;2.80;;
73015;SDS011;61893;50.074;14.440;2024-03-17T07:23:53;3.92;;;2.88;;
73015;SDS011;61893;50.074;14.440;2024-03-17T07:26:52;6.28;;;3.10;;
73015;SDS011;61893;50.074;14.440;2024-03-17T07:29:33;5.53;;;2.90;;
73015;SDS011;61893;50.074;14.440;2024-03-17T07:32:13;6.93;;;2.95;;
73015;SDS011;61893;50.074;14.440;2024-03-17T07:35:28;5.90;;;2.80;;
73015;SDS011;61893;50.074;14.440;2024-03-17T07:38:08;7.25;;;3.63;;
73015;SDS011;61893;50.074;14.440;2024-03-17T07:40:56;7.03;;;2.80;;
73015;SDS011;61893;50.074;14.440;2024-03-17T07:43:44;8.52;;;2.83;;
73015;SDS011;61893;50.074;14.440;2024-03-17T07:46:44;6.03;;;2.75;;
73015;SDS011;61893;50.074;14.440;2024-03-17T07:49:26;4.43;;;2.65;;
73015;SDS011;61893;50.074;14.440;2024-03-17T07:52:31;4.30;;;2.40;;
73015;SDS011;61893;50.074;14.440;2024-03-17T07:56:05;4.45;;;2.72;;
73015;SDS011;61893;50.074;14.440;2024-03-17T07:58:51;6.18;;;2.60;;
73015;SDS011;61893;50.074;14.440;2024-03-17T08:01:56;4.35;;;2.22;;
73015;SDS011;61893;50.074;14.440;2024-03-17T08:04:46;10.23;;;3.25;;
73015;SDS011;61893;50.074;14.440;2024-03-17T08:07:33;5.93;;;2.85;;
73015;SDS011;61893;50.074;14.440;2024-03-17T08:10:56;5.80;;;2.67;;
73015;SDS011;61893;50.074;14.440;2024-03-17T08:14:10;5.47;;;2.90;;
73015;SDS011;61893;50.074;14.440;2024-03-17T08:17:52;8.18;;;2.88;;
73015;SDS011;61893;50.074;14.440;2024-03-17T08:20:50;8.20;;;3.25;;
73015;SDS011;61893;50.074;14.440;2024-03-17T08:24:39;9.13;;;3.65;;
73015;SDS011;61893;50.074;14.440;2024-03-17T08:27:27;5.88;;;2.95;;
73015;SDS011;61893;50.074;14.440;2024-03-17T08:30:13;6.70;;;3.30;;
73015;SDS011;61893;50.074;14.440;2024-03-17T08:33:58;9.10;;;6.18;;
73015;SDS011;61893;50.074;14.440;2024-03-17T08:36:44;6.82;;;3.47;;
73015;SDS011;61893;50.074;14.440;2024-03-17T08:39:58;6.28;;;3.97;;
73015;SDS011;61893;50.074;14.440;2024-03-17T08:43:03;8.45;;;4.10;;
73015;SDS011;61893;50.074;14.440;2024-03-17T08:46:17;7.57;;;3.67;;
73015;SDS011;61893;50.074;14.440;2024-03-17T08:49:29;11.82;;;3.08;;
73015;SDS011;61893;50.074;14.440;2024-03-17T08:52:48;5.72;;;3.13;;
73015;SDS011;61893;50.074;14.440;2024-03-17T08:56:02;10.23;;;3.30;;
73015;SDS011;61893;50.074;14.440;2024-03-17T08:59:04;7.10;;;3.10;;
73015;SDS011;61893;50.074;14.440;2024-03-17T09:02:25;5.82;;;2.65;;
73015;SDS011;61893;50.074;14.440;2024-03-17T09:05:36;8.63;;;3.50;;
73015;SDS011;61893;50.074;14.440;2024-03-17T09:09:33;6.55;;;3.05;;
73015;SDS011;61893;50.074;14.440;2024-03-17T09:13:05;8.40;;;3.20;;
73015;SDS011;61893;50.074;14.440;2024-03-17T09:16:09;7.72;;;2.90;;
73015;SDS011;61893;50.074;14.440;2024-03-17T09:19:19;5.97;;;3.08;;
73015;SDS011;61893;50.074;14.440;2024-03-17T09:22:34;6.25;;;3.33;;
73015;SDS011;61893;50.074;14.440;2024-03-17T09:25:54;6.15;;;3.75;;
73015;SDS011;61893;50.074;14.440;2024-03-17T09:29:17;8.85;;;4.65;;
73015;SDS011;61893;50.074;14.440;2024-03-17T09:32:21;7.78;;;3.97;;
73015;SDS011;61893;50.074;14.440;2024-03-17T09:35:56;7.40;;;3.63;;
73015;SDS011;61893;50.074;14.440;2024-03-17T09:39:17;4.55;;;3.05;;
73015;SDS011;61893;50.074;14.440;2024-03-17T09:42:18;4.88;;;3.30;;
73015;SDS011;61893;50.074;14.440;2024-03-17T09:45:07;5.97;;;3.05;;
73015;SDS011;61893;50.074;14.440;2024-03-17T09:48:01;7.00;;;2.95;;
73015;SDS011;61893;50.074;14.440;2024-03-17T09:50:33;5.68;;;2.55;;
73015;SDS011;61893;50.074;14.440;2024-03-17T09:53:11;8.02;;;2.85;;
73015;SDS011;61893;50.074;14.440;2024-03-17T09:55:45;6.55;;;2.88;;
73015;SDS011;61893;50.074;14.440;2024-03-17T09:58:15;5.47;;;2.83;;
73015;SDS011;61893;50.074;14.440;2024-03-17T10:00:49;7.30;;;2.85;;
73015;SDS011;61893;50.074;14.440;2024-03-17T10:06:19;6.22;;;2.95;;
73015;SDS011;61893;50.074;14.440;2024-03-17T10:08:53;5.97;;;2.75;;
73015;SDS011;61893;50.074;14.440;2024-03-17T10:11:37;5.68;;;3.30;;
73015;SDS011;61893;50.074;14.440;2024-03-17T10:15:19;5.32;;;3.10;;
73015;SDS011;61893;50.074;14.440;2024-03-17T10:18:25;8.63;;;3.08;;
73015;SDS011;61893;50.074;14.440;2024-03-17T10:22:22;5.15;;;3.13;;
73015;SDS011;61893;50.074;14.440;2024-03-17T10:25:47;5.78;;;3.13;;
73015;SDS011;61893;50.074;14.440;2024-03-17T10:28:43;7.88;;;3.28;;
73015;SDS011;61893;50.074;14.440;2024-03-17T10:31:09;5.68;;;2.85;;
73015;SDS011;61893;50.074;14.440;2024-03-17T10:33:36;4.32;;;2.88;;
73015;SDS011;61893;50.074;14.440;2024-03-17T10:36:02;5.32;;;2.80;;
73015;SDS011;61893;50.074;14.440;2024-03-17T10:38:34;7.22;;;3.05;;
73015;SDS011;61893;50.074;14.440;2024-03-17T10:41:00;4.47;;;2.88;;
73015;SDS011;61893;50.074;14.440;2024-03-17T10:43:27;5.90;;;3.45;;
73015;SDS011;61893;50.074;14.440;2024-03-17T10:45:53;6.05;;;3.38;;
73015;SDS011;61893;50.074;14.440;2024-03-17T10:50:51;5.88;;;3.10;;
73015;SDS011;61893;50.074;14.440;2024-03-17T10:53:26;6.38;;;3.25;;
73015;SDS011;61893;50.074;14.440;2024-03-17T10:55:56;7.00;;;2.90;;
73015;SDS011;61893;50.074;14.440;2024-03-17T10:58:36;5.57;;;2.75;;
73015;SDS011;61893;50.074;14.440;2024-03-17T11:01:04;4.20;;;2.85;;
73015;SDS011;61893;50.074;14.440;2024-03-17T11:03:35;4.00;;;2.70;;
73015;SDS011;61893;50.074;14.440;2024-03-17T11:06:02;4.85;;;3.20;;
73015;SDS011;61893;50.074;14.440;2024-03-17T11:08:31;5.35;;;3.50;;
73015;SDS011;61893;50.074;14.440;2024-03-17T11:10:59;6.70;;;3.30;;
73015;SDS011;61893;50.074;14.440;2024-03-17T11:13:27;6.00;;;3.22;;
73015;SDS011;61893;50.074;14.440;2024-03-17T11:16:02;7.03;;;3.10;;
73015;SDS011;61893;50.074;14.440;2024-03-17T11:18:44;6.38;;;3.75;;
73015;SDS011;61893;50.074;14.440;2024-03-17T11:21:36;5.35;;;3.13;;
73015;SDS011;61893;50.074;14.440;2024-03-17T11:31:39;5.72;;;3.08;;
73015;SDS011;61893;50.074;14.440;2024-03-17T11:37:07;4.80;;;3.20;;
73015;SDS011;61893;50.074;14.440;2024-03-17T11:40:23;4.63;;;3.13;;
73015;SDS011;61893;50.074;14.440;2024-03-17T11:43:02;6.18;;;2.90;;
73015;SDS011;61893;50.074;14.440;2024-03-17T11:45:32;7.05;;;2.90;;
73015;SDS011;61893;50.074;14.440;2024-03-17T11:48:01;4.93;;;2.80;;
73015;SDS011;61893;50.074;14.440;2024-03-17T11:50:36;5.18;;;2.70;;
73015;SDS011;61893;50.074;14.440;2024-03-17T11:53:05;5.03;;;2.42;;
73015;SDS011;61893;50.074;14.440;2024-03-17T11:55:36;7.00;;;2.88;;
73015;SDS011;61893;50.074;14.440;2024-03-17T11:58:03;6.93;;;2.70;;
73015;SDS011;61893;50.074;14.440;2024-03-17T12:00:31;3.97;;;2.50;;
73015;SDS011;61893;50.074;14.440;2024-03-17T12:02:57;3.58;;;2.45;;
73015;SDS011;61893;50.074;14.440;2024-03-17T12:05:24;8.05;;;2.83;;
73015;SDS011;61893;50.074;14.440;2024-03-17T12:07:56;4.57;;;2.67;;
73015;SDS011;61893;50.074;14.440;2024-03-17T12:10:23;6.93;;;3.08;;
73015;SDS011;61893;50.074;14.440;2024-03-17T12:13:01;7.15;;;2.75;;
73015;SDS011;61893;50.074;14.440;2024-03-17T12:17:58;5.30;;;2.50;;
73015;SDS011;61893;50.074;14.440;2024-03-17T12:20:34;7.10;;;3.05;;
73015;SDS011;61893;50.074;14.440;2024-03-17T12:23:09;5.90;;;3.80;;
73015;SDS011;61893;50.074;14.440;2024-03-17T12:25:46;5.88;;;3.30;;
73015;SDS011;61893;50.074;14.440;2024-03-17T12:28:16;6.25;;;3.42;;
73015;SDS011;61893;50.074;14.440;2024-03-17T12:30:43;8.35;;;3.10;;
73015;SDS011;61893;50.074;14.440;2024-03-17T12:33:32;6.82;;;3.22;;
73015;SDS011;61893;50.074;14.440;2024-03-17T12:36:30;12.40;;;3.25;;
73015;SDS011;61893;50.074;14.440;2024-03-17T12:39:29;6.35;;;3.13;;
73015;SDS011;61893;50.074;14.440;2024-03-17T12:45:19;9.93;;;3.17;;
73015;SDS011;61893;50.074;14.440;2024-03-17T12:48:02;4.95;;;2.47;;
73015;SDS011;61893;50.074;14.440;2024-03-17T12:50:55;5.13;;;2.28;;
73015;SDS011;61893;50.074;14.440;2024-03-17T12:54:14;5.72;;;2.60;;
73015;SDS011;61893;50.074;14.440;2024-03-17T12:57:22;4.70;;;2.40;;
73015;SDS011;61893;50.074;14.440;2024-03-17T13:03:45;5.75;;;2.38;;
73015;SDS011;61893;50.074;14.440;2024-03-17T13:06:24;3.78;;;2.25;;
73015;SDS011;61893;50.074;14.440;2024-03-17T13:09:06;6.95;;;2.47;;
73015;SDS011;61893;50.074;14.440;2024-03-17T13:11:39;4.75;;;2.55;;
73015;SDS011;61893;50.074;14.440;2024-03-17T13:14:05;5.05;;;2.22;;
73015;SDS011;61893;50.074;14.440;2024-03-17T13:17:02;5.10;;;2.33;;
73015;SDS011;61893;50.074;14.440;2024-03-17T13:20:23;4.32;;;2.70;;
73015;SDS011;61893;50.074;14.440;2024-03-17T13:23:34;4.22;;;2.50;;
73015;SDS011;61893;50.074;14.440;2024-03-17T13:27:13;5.95;;;3.28;;
73015;SDS011;61893;50.074;14.440;2024-03-17T13:30:09;4.78;;;2.30;;
73015;SDS011;61893;50.074;14.440;2024-03-17T13:33:37;6.70;;;2.97;;
73015;SDS011;61893;50.074;14.440;2024-03-17T13:36:53;4.25;;;2.58;;
73015;SDS011;61893;50.074;14.440;2024-03-17T13:40:44;3.08;;;2.20;;
73015;SDS011;61893;50.074;14.440;2024-03-17T13:43:53;3.10;;;2.20;;
73015;SDS011;61893;50.074;14.440;2024-03-17T13:47:05;7.38;;;2.60;;
73015;SDS011;61893;50.074;14.440;2024-03-17T13:50:13;4.47;;;2.80;;
73015;SDS011;61893;50.074;14.440;2024-03-17T13:53:21;4.88;;;2.50;;
73015;SDS011;61893;50.074;14.440;2024-03-17T13:57:12;4.70;;;2.35;;
73015;SDS011;61893;50.074;14.440;2024-03-17T14:02:56;4.75;;;2.38;;
73015;SDS011;61893;50.074;14.440;2024-03-17T14:05:34;4.43;;;2.50;;
73015;SDS011;61893;50.074;14.440;2024-03-17T14:08:03;4.97;;;2.30;;
73015;SDS011;61893;50.074;14.440;2024-03-17T14:16:25;6.03;;;2.90;;
73015;SDS011;61893;50.074;14.440;2024-03-17T14:18:54;6.68;;;2.72;;
73015;SDS011;61893;50.074;14.440;2024-03-17T14:21:22;3.85;;;2.55;;
73015;SDS011;61893;50.074;14.440;2024-03-17T14:24:07;4.78;;;2.60;;
73015;SDS011;61893;50.074;14.440;2024-03-17T14:26:39;2.85;;;2.08;;
73015;SDS011;61893;50.074;14.440;2024-03-17T14:29:09;3.92;;;2.30;;
73015;SDS011;61893;50.074;14.440;2024-03-17T14:31:45;4.78;;;2.40;;
73015;SDS011;61893;50.074;14.440;2024-03-17T14:34:18;6.88;;;2.83;;
73015;SDS011;61893;50.074;14.440;2024-03-17T14:37:05;4.70;;;2.80;;
73015;SDS011;61893;50.074;14.440;2024-03-17T14:39:47;4.78;;;2.70;;
73015;SDS011;61893;50.074;14.440;2024-03-17T14:43:01;5.15;;;2.85;;
73015;SDS011;61893;50.074;14.440;2024-03-17T14:45:46;5.18;;;2.95;;
73015;SDS011;61893;50.074;14.440;2024-03-17T14:48:19;6.25;;;3.10;;
73015;SDS011;61893;50.074;14.440;2024-03-17T14:50:49;6.60;;;2.55;;
73015;SDS011;61893;50.074;14.440;2024-03-17T14:53:30;6.55;;;2.75;;
73015;SDS011;61893;50.074;14.440;2024-03-17T14:55:59;4.18;;;2.78;;
73015;SDS011;61893;50.074;14.440;2024-03-17T14:58:26;6.18;;;2.95;;
73015;SDS011;61893;50.074;14.440;2024-03-17T15:00:56;4.68;;;2.80;;
73015;SDS011;61893;50.074;14.440;2024-03-17T15:03:25;6.68;;;2.92;;
73015;SDS011;61893;50.074;14.440;2024-03-17T15:05:53;5.25;;;3.17;;
73015;SDS011;61893;50.074;14.440;2024-03-17T15:08:26;6.88;;;3.00;;
73015;SDS011;61893;50.074;14.440;2024-03-17T15:10:54;7.10;;;3.75;;
73015;SDS011;61893;50.074;14.440;2024-03-17T15:13:23;5.47;;;3.00;;
73015;SDS011;61893;50.074;14.440;2024-03-17T15:16:39;5.97;;;3.30;;
73015;SDS011;61893;50.074;14.440;2024-03-17T15:19:15;6.88;;;2.92;;
73015;SDS011;61893;50.074;14.440;2024-03-17T15:21:42;7.30;;;2.30;;
73015;SDS011;61893;50.074;14.440;2024-03-17T15:24:18;6.90;;;3.17;;
73015;SDS011;61893;50.074;14.440;2024-03-17T15:26:45;6.30;;;3.03;;
73015;SDS011;61893;50.074;14.440;2024-03-17T15:29:13;4.40;;;2.45;;
73015;SDS011;61893;50.074;14.440;2024-03-17T15:31:41;5.68;;;2.50;;
73015;SDS011;61893;50.074;14.440;2024-03-17T15:34:24;5.40;;;3.08;;
73015;SDS011;61893;50.074;14.440;2024-03-17T15:37:05;5.38;;;2.80;;
73015;SDS011;61893;50.074;14.440;2024-03-17T15:39:33;4.85;;;2.65;;
73015;SDS011;61893;50.074;14.440;2024-03-17T15:42:03;4.00;;;2.60;;
73015;SDS011;61893;50.074;14.440;2024-03-17T15:44:30;5.72;;;3.00;;
73015;SDS011;61893;50.074;14.440;2024-03-17T15:47:09;5.20;;;2.83;;
73015;SDS011;61893;50.074;14.440;2024-03-17T15:49:35;5.60;;;2.40;;
73015;SDS011;61893;50.074;14.440;2024-03-17T15:52:17;4.93;;;2.58;;
73015;SDS011;61893;50.074;14.440;2024-03-17T15:54:58;6.65;;;3.13;;
73015;SDS011;61893;50.074;14.440;2024-03-17T15:57:27;5.05;;;2.58;;
73015;SDS011;61893;50.074;14.440;2024-03-17T16:00:02;6.07;;;2.72;;
73015;SDS011;61893;50.074;14.440;2024-03-17T16:02:35;6.35;;;2.70;;
73015;SDS011;61893;50.074;14.440;2024-03-17T16:05:19;5.72;;;2.80;;
73015;SDS011;61893;50.074;14.440;2024-03-17T16:07:54;4.82;;;2.42;;
73015;SDS011;61893;50.074;14.440;2024-03-17T16:10:22;5.80;;;2.80;;
73015;SDS011;61893;50.074;14.440;2024-03-17T16:12:54;2.88;;;2.30;;
73015;SDS011;61893;50.074;14.440;2024-03-17T16:15:25;6.03;;;2.20;;
73015;SDS011;61893;50.074;14.440;2024-03-17T16:18:09;4.83;;;2.77;;
73015;SDS011;61893;50.074;14.440;2024-03-17T16:23:56;6.18;;;2.85;;
73015;SDS011;61893;50.074;14.440;2024-03-17T16:26:35;7.22;;;2.92;;
73015;SDS011;61893;50.074;14.440;2024-03-17T16:29:19;4.90;;;2.70;;
73015;SDS011;61893;50.074;14.440;2024-03-17T16:31:55;7.55;;;3.05;;
73015;SDS011;61893;50.074;14.440;2024-03-17T16:34:41;6.07;;;3.17;;
73015;SDS011;61893;50.074;14.440;2024-03-17T16:37:23;7.03;;;2.67;;
73015;SDS011;61893;50.074;14.440;2024-03-17T16:40:03;5.43;;;2.60;;
73015;SDS011;61893;50.074;14.440;2024-03-17T16:42:36;4.47;;;3.03;;
73015;SDS011;61893;50.074;14.440;2024-03-17T16:45:19;4.47;;;2.80;;